Terminal Aerodrome Forecast
Issued by NWS

Home | Current Version | Previous Version | Text Only | Print | Product List | Glossary On
Versions: 1 2 3 4 5 6 7 8 9 10 11 12 13 14 15 16 17 18 19 20 21 22 23 24 25
000
FTUS43 KDVN 300520
TAFBRL
TAF
KBRL 300520Z 3006/3106 23007KT P6SM VCSH SCT100 BKN250
      TEMPO 3006/3010 4SM -SHRA BKN025
     FM301000 01005KT 2SM -RA BR BKN009 OVC025
     FM302100 01014G23KT 6SM BR VCSH OVC020
     FM310200 02012KT P6SM SCT030=

USA.gov is the U.S. government's official web portal to all federal, state and local government web resources and services.